Terminal Aerodrome Forecast
Issued by NWS

Home | Current Version | Previous Version | Text Only | Print | Product List | Glossary On
Versions: 1 2 3 4 5 6 7 8 9 10 11 12 13 14
000
FTUS43 KTOP 221729
TAFFOE
TAF
KFOE 221729Z 2218/2318 22014KT P6SM BKN200
     FM222100 26010KT P6SM SCT200
     FM222300 28007KT P6SM SCT250
     FM230700 06005KT P6SM SCT250
     FM231400 08012G22KT P6SM VCSH OVC100=

USA.gov is the U.S. government's official web portal to all federal, state and local government web resources and services.